createdAt,value
2023-04-23T00:00:21.892Z,545.00
2023-04-23T00:01:21.878Z,545.00
2023-04-23T00:02:21.936Z,546.00
2023-04-23T00:03:21.982Z,548.00
2023-04-23T00:04:22.054Z,548.00
2023-04-23T00:05:21.864Z,548.00
2023-04-23T00:06:21.845Z,546.00
2023-04-23T00:07:21.841Z,546.00
2023-04-23T00:08:21.834Z,544.00
2023-04-23T00:09:21.828Z,542.00
2023-04-23T00:10:21.846Z,542.00
2023-04-23T00:11:21.900Z,544.00
2023-04-23T00:12:21.951Z,542.00
2023-04-23T00:13:22.032Z,544.00
2023-04-23T00:14:22.062Z,544.00
2023-04-23T00:15:22.140Z,545.00
2023-04-23T00:16:22.224Z,544.00
2023-04-23T00:17:22.271Z,546.00
2023-04-23T00:18:22.318Z,547.00
2023-04-23T00:19:22.377Z,549.00
2023-04-23T00:20:22.442Z,551.00
2023-04-23T00:21:22.511Z,551.00
2023-04-23T00:22:22.568Z,552.00
2023-04-23T00:23:22.670Z,553.00
2023-04-23T00:24:22.698Z,554.00
2023-04-23T00:25:22.756Z,554.00
2023-04-23T00:26:22.833Z,556.00
2023-04-23T00:27:22.878Z,554.00
2023-04-23T00:28:22.945Z,553.00
2023-04-23T00:29:23.054Z,550.00
2023-04-23T00:30:23.066Z,547.00
2023-04-23T00:31:23.178Z,545.00
2023-04-23T00:32:23.247Z,546.00
2023-04-23T00:33:23.262Z,549.00
2023-04-23T00:34:23.327Z,551.00
2023-04-23T00:35:23.393Z,552.00
2023-04-23T00:36:23.459Z,553.00
2023-04-23T00:37:23.514Z,552.00
2023-04-23T00:38:23.568Z,553.00
2023-04-23T00:39:23.645Z,551.00
2023-04-23T00:40:23.750Z,549.00
2023-04-23T00:41:23.777Z,547.00
2023-04-23T00:42:23.831Z,548.00
2023-04-23T00:43:23.896Z,550.00
2023-04-23T00:44:23.966Z,551.00
2023-04-23T00:45:24.046Z,552.00
2023-04-23T00:46:24.145Z,553.00
2023-04-23T00:47:24.153Z,555.00
2023-04-23T00:48:24.211Z,555.00
2023-04-23T00:49:24.289Z,556.00
2023-04-23T00:50:24.345Z,556.00
2023-04-23T00:51:24.419Z,554.00
2023-04-23T00:52:24.476Z,553.00
2023-04-23T00:53:24.539Z,554.00
2023-04-23T00:54:24.616Z,554.00
2023-04-23T00:55:24.669Z,554.00
2023-04-23T00:56:24.726Z,552.00
2023-04-23T00:57:24.784Z,549.00
2023-04-23T00:58:24.864Z,551.00
2023-04-23T00:59:24.909Z,552.00
2023-04-23T01:00:24.977Z,554.00
2023-04-23T01:01:25.078Z,551.00
2023-04-23T01:02:25.219Z,549.00
2023-04-23T01:03:25.353Z,549.00
2023-04-23T01:04:25.239Z,551.00
2023-04-23T01:05:25.333Z,552.00
2023-04-23T01:06:25.343Z,553.00
2023-04-23T01:07:25.418Z,553.00
2023-04-23T01:08:25.478Z,555.00
2023-04-23T01:09:25.537Z,556.00
2023-04-23T01:10:25.605Z,556.00
2023-04-23T01:11:25.663Z,555.00
2023-04-23T01:12:25.739Z,552.00
2023-04-23T01:13:25.794Z,554.00
2023-04-23T01:14:25.861Z,556.00
2023-04-23T01:15:25.937Z,556.00
2023-04-23T01:16:25.996Z,555.00
2023-04-23T01:17:26.075Z,557.00
2023-04-23T01:18:26.096Z,559.00
2023-04-23T01:19:26.170Z,560.00
2023-04-23T01:20:26.235Z,560.00
2023-04-23T01:21:26.283Z,558.00
2023-04-23T01:22:26.349Z,560.00
2023-04-23T01:23:26.409Z,558.00
2023-04-23T01:24:26.474Z,557.00
2023-04-23T01:25:26.547Z,558.00
2023-04-23T01:26:26.594Z,560.00
2023-04-23T01:27:26.661Z,561.00
2023-04-23T01:28:26.730Z,558.00
2023-04-23T01:29:26.792Z,559.00
2023-04-23T01:30:26.862Z,557.00
2023-04-23T01:31:26.992Z,558.00
2023-04-23T01:32:27.024Z,558.00
2023-04-23T01:33:27.092Z,558.00
2023-04-23T01:34:27.119Z,557.00
2023-04-23T01:35:27.177Z,556.00
2023-04-23T01:36:27.253Z,556.00
2023-04-23T01:37:27.303Z,555.00
2023-04-23T01:38:27.370Z,554.00
2023-04-23T01:39:27.437Z,553.00
2023-04-23T01:40:27.498Z,553.00
2023-04-23T01:41:27.543Z,551.00
2023-04-23T01:42:27.619Z,551.00
2023-04-23T01:43:27.684Z,549.00
2023-04-23T01:44:27.727Z,547.00
2023-04-23T01:45:27.791Z,548.00
2023-04-23T01:46:27.859Z,547.00
2023-04-23T01:47:27.919Z,546.00
2023-04-23T01:48:27.972Z,544.00
2023-04-23T01:49:28.063Z,545.00
2023-04-23T01:50:28.098Z,547.00
2023-04-23T01:51:28.165Z,547.00
2023-04-23T01:52:28.235Z,547.00
2023-04-23T01:53:28.277Z,545.00
2023-04-23T01:54:28.350Z,544.00
2023-04-23T01:55:28.405Z,546.00
2023-04-23T01:56:28.467Z,547.00
2023-04-23T01:57:28.540Z,545.00
2023-04-23T01:58:28.599Z,545.00
2023-04-23T01:59:28.669Z,546.00
2023-04-23T02:00:28.732Z,546.00
2023-04-23T02:01:28.933Z,545.00
2023-04-23T02:02:29.046Z,545.00
2023-04-23T02:03:29.008Z,548.00
2023-04-23T02:04:29.052Z,548.00
2023-04-23T02:05:29.047Z,547.00
2023-04-23T02:06:29.081Z,546.00
2023-04-23T02:07:29.148Z,548.00
2023-04-23T02:08:29.195Z,550.00
2023-04-23T02:09:29.250Z,551.00
2023-04-23T02:10:29.311Z,553.00
2023-04-23T02:11:29.355Z,553.00
2023-04-23T02:12:29.412Z,552.00
2023-04-23T02:13:29.474Z,553.00
2023-04-23T02:14:29.530Z,551.00
2023-04-23T02:15:29.592Z,550.00
2023-04-23T02:16:29.667Z,549.00
2023-04-23T02:17:29.739Z,548.00
2023-04-23T02:18:29.751Z,547.00
2023-04-23T02:19:29.817Z,548.00
2023-04-23T02:20:29.881Z,545.00
2023-04-23T02:21:29.950Z,545.00
2023-04-23T02:22:30.003Z,548.00
2023-04-23T02:23:30.058Z,548.00
2023-04-23T02:24:30.119Z,546.00
2023-04-23T02:25:30.182Z,547.00
2023-04-23T02:26:30.244Z,547.00
2023-04-23T02:27:30.312Z,547.00
2023-04-23T02:28:30.360Z,547.00
2023-04-23T02:29:30.401Z,549.00
2023-04-23T02:30:30.474Z,548.00
2023-04-23T02:31:30.597Z,551.00
2023-04-23T02:32:30.613Z,551.00
2023-04-23T02:33:30.660Z,551.00
2023-04-23T02:34:30.717Z,552.00
2023-04-23T02:35:30.791Z,553.00
2023-04-23T02:36:30.842Z,551.00
2023-04-23T02:37:30.937Z,550.00
2023-04-23T02:38:30.984Z,550.00
2023-04-23T02:39:31.057Z,548.00
2023-04-23T02:40:31.115Z,549.00
2023-04-23T02:41:31.172Z,550.00
2023-04-23T02:42:31.228Z,550.00
2023-04-23T02:43:31.299Z,546.00
2023-04-23T02:44:31.332Z,549.00
2023-04-23T02:45:31.371Z,548.00
2023-04-23T02:46:31.525Z,547.00
2023-04-23T02:47:31.481Z,545.00
2023-04-23T02:48:31.512Z,546.00
2023-04-23T02:49:31.565Z,546.00
2023-04-23T02:50:31.626Z,545.00
2023-04-23T02:51:31.674Z,544.00
2023-04-23T02:52:31.734Z,542.00
2023-04-23T02:53:31.817Z,544.00
2023-04-23T02:54:31.841Z,545.00
2023-04-23T02:55:31.925Z,541.00
2023-04-23T02:56:31.917Z,541.00
2023-04-23T02:57:31.976Z,541.00
2023-04-23T02:58:32.044Z,541.00
2023-04-23T02:59:32.065Z,542.00
2023-04-23T03:00:32.115Z,542.00
2023-04-23T03:01:32.216Z,544.00
2023-04-23T03:02:32.316Z,544.00
2023-04-23T03:03:32.768Z,541.00
2023-04-23T03:04:32.324Z,539.00
2023-04-23T03:05:32.430Z,540.00
2023-04-23T03:06:32.418Z,540.00
2023-04-23T03:07:32.443Z,542.00
2023-04-23T03:08:32.491Z,543.00
2023-04-23T03:09:32.640Z,543.00
2023-04-23T03:10:32.538Z,542.00
2023-04-23T03:11:32.554Z,539.00
2023-04-23T03:12:32.590Z,542.00
2023-04-23T03:13:32.765Z,541.00
2023-04-23T03:14:32.640Z,542.00
2023-04-23T03:15:32.730Z,543.00
2023-04-23T03:16:32.719Z,544.00
2023-04-23T03:17:32.827Z,541.00
2023-04-23T03:18:32.753Z,540.00
2023-04-23T03:19:32.768Z,540.00
2023-04-23T03:20:32.775Z,540.00
2023-04-23T03:21:32.799Z,542.00
2023-04-23T03:22:32.826Z,542.00
2023-04-23T03:23:32.822Z,541.00
2023-04-23T03:24:32.845Z,541.00
2023-04-23T03:25:32.925Z,542.00
2023-04-23T03:26:32.868Z,545.00
2023-04-23T03:27:32.885Z,545.00
2023-04-23T03:28:32.904Z,544.00
2023-04-23T03:29:32.933Z,541.00
2023-04-23T03:30:32.956Z,541.00
2023-04-23T03:31:32.948Z,543.00
2023-04-23T03:32:32.993Z,547.00
2023-04-23T03:33:33.000Z,548.00
2023-04-23T03:34:33.029Z,548.00
2023-04-23T03:35:33.096Z,546.00
2023-04-23T03:36:33.087Z,547.00
2023-04-23T03:37:33.117Z,547.00
2023-04-23T03:38:33.162Z,547.00
2023-04-23T03:39:33.220Z,548.00
2023-04-23T03:40:33.224Z,549.00
2023-04-23T03:41:33.279Z,548.00
2023-04-23T03:42:33.292Z,546.00
2023-04-23T03:43:33.321Z,543.00
2023-04-23T03:44:33.353Z,543.00
2023-04-23T03:45:33.396Z,544.00
2023-04-23T03:46:33.438Z,546.00
2023-04-23T03:47:33.461Z,547.00
2023-04-23T03:48:33.451Z,546.00
2023-04-23T03:49:33.455Z,545.00
2023-04-23T03:50:33.482Z,544.00
2023-04-23T03:51:33.504Z,544.00
2023-04-23T03:52:33.534Z,545.00
2023-04-23T03:53:33.535Z,546.00
2023-04-23T03:54:33.562Z,546.00
2023-04-23T03:55:33.585Z,549.00
2023-04-23T03:56:33.590Z,550.00
2023-04-23T03:57:33.623Z,551.00
2023-04-23T03:58:33.598Z,551.00
2023-04-23T03:59:33.595Z,554.00
2023-04-23T04:00:33.613Z,554.00
2023-04-23T04:01:33.627Z,555.00
2023-04-23T04:02:33.704Z,555.00
2023-04-23T04:03:33.786Z,557.00
2023-04-23T04:04:33.971Z,555.00
2023-04-23T04:05:33.762Z,553.00
2023-04-23T04:06:33.715Z,550.00
2023-04-23T04:07:33.704Z,553.00
2023-04-23T04:08:33.704Z,550.00
2023-04-23T04:09:33.698Z,550.00
2023-04-23T04:10:33.696Z,550.00
2023-04-23T04:11:33.695Z,549.00
2023-04-23T04:12:33.683Z,548.00
2023-04-23T04:13:33.706Z,546.00
2023-04-23T04:14:33.668Z,546.00
2023-04-23T04:15:33.682Z,547.00
2023-04-23T04:16:33.741Z,549.00
2023-04-23T04:17:33.673Z,550.00
2023-04-23T04:18:33.660Z,549.00
2023-04-23T04:19:33.652Z,549.00
2023-04-23T04:20:33.647Z,548.00
2023-04-23T04:21:33.649Z,549.00
2023-04-23T04:22:33.659Z,549.00
2023-04-23T04:23:33.669Z,552.00
2023-04-23T04:24:33.669Z,552.00
2023-04-23T04:25:33.685Z,551.00
2023-04-23T04:26:33.679Z,550.00
2023-04-23T04:27:33.700Z,552.00
2023-04-23T04:28:33.700Z,552.00
2023-04-23T04:29:33.728Z,552.00
2023-04-23T04:30:33.684Z,553.00
2023-04-23T04:31:33.735Z,549.00
2023-04-23T04:32:33.723Z,548.00
2023-04-23T04:33:33.682Z,549.00
2023-04-23T04:34:33.680Z,551.00
2023-04-23T04:35:33.676Z,550.00
2023-04-23T04:36:32.684Z,551.00
2023-04-23T04:37:33.736Z,549.00
2023-04-23T04:38:33.690Z,550.00
2023-04-23T04:39:33.695Z,548.00
2023-04-23T04:40:33.677Z,547.00
2023-04-23T04:41:33.691Z,548.00
2023-04-23T04:42:33.666Z,550.00
2023-04-23T04:43:33.672Z,551.00
2023-04-23T04:44:33.657Z,553.00
2023-04-23T04:45:33.672Z,554.00
2023-04-23T04:46:33.694Z,553.00
2023-04-23T04:47:33.722Z,553.00
2023-04-23T04:48:33.648Z,553.00
2023-04-23T04:49:33.648Z,553.00
2023-04-23T04:50:33.638Z,551.00
2023-04-23T04:51:33.642Z,548.00
2023-04-23T04:52:33.647Z,546.00
2023-04-23T04:53:33.656Z,546.00
2023-04-23T04:54:33.640Z,546.00
2023-04-23T04:55:33.625Z,546.00
2023-04-23T04:56:33.625Z,545.00
2023-04-23T04:57:33.623Z,548.00
2023-04-23T04:58:33.626Z,548.00
2023-04-23T04:59:33.625Z,548.00
2023-04-23T05:00:33.623Z,548.00
2023-04-23T05:01:33.714Z,548.00
2023-04-23T05:02:33.653Z,547.00
2023-04-23T05:03:33.780Z,546.00
2023-04-23T05:04:33.619Z,547.00
2023-04-23T05:05:33.642Z,549.00
2023-04-23T05:06:33.635Z,547.00
2023-04-23T05:07:33.651Z,548.00
2023-04-23T05:08:33.670Z,550.00
2023-04-23T05:09:33.663Z,550.00
2023-04-23T05:10:33.677Z,552.00
2023-04-23T05:11:33.683Z,550.00
2023-04-23T05:12:33.690Z,548.00
2023-04-23T05:13:33.717Z,551.00
2023-04-23T05:14:33.721Z,550.00
2023-04-23T05:15:33.727Z,548.00
2023-04-23T05:16:33.758Z,549.00
2023-04-23T05:17:33.817Z,551.00
2023-04-23T05:18:33.716Z,551.00
2023-04-23T05:19:33.718Z,552.00
2023-04-23T05:20:33.713Z,551.00
2023-04-23T05:21:33.706Z,552.00
2023-04-23T05:22:33.707Z,550.00
2023-04-23T05:23:33.719Z,551.00
2023-04-23T05:24:33.697Z,550.00
2023-04-23T05:25:33.700Z,549.00
2023-04-23T05:26:33.715Z,547.00
2023-04-23T05:27:33.712Z,546.00
2023-04-23T05:28:33.711Z,544.00
2023-04-23T05:29:33.724Z,546.00
2023-04-23T05:30:33.714Z,546.00
2023-04-23T05:31:33.712Z,548.00
2023-04-23T05:32:33.718Z,549.00
2023-04-23T05:33:42.685Z,547.00
2023-04-23T05:34:33.729Z,548.00
2023-04-23T05:35:33.715Z,547.00
2023-04-23T05:36:33.706Z,547.00
2023-04-23T05:37:33.692Z,548.00
2023-04-23T05:38:33.688Z,548.00
2023-04-23T05:39:33.684Z,550.00
2023-04-23T05:40:33.667Z,548.00
2023-04-23T05:41:33.661Z,545.00
2023-04-23T05:42:33.653Z,542.00
2023-04-23T05:43:33.653Z,541.00
2023-04-23T05:44:33.660Z,544.00
2023-04-23T05:45:33.648Z,543.00
2023-04-23T05:46:33.684Z,543.00
2023-04-23T05:47:33.659Z,545.00
2023-04-23T05:48:33.621Z,545.00
2023-04-23T05:49:33.646Z,545.00
2023-04-23T05:50:33.599Z,547.00
2023-04-23T05:51:33.589Z,548.00
2023-04-23T05:52:33.599Z,550.00
2023-04-23T05:53:33.578Z,548.00
2023-04-23T05:54:33.574Z,546.00
2023-04-23T05:55:33.563Z,545.00
2023-04-23T05:56:33.559Z,545.00
2023-04-23T05:57:33.551Z,545.00
2023-04-23T05:58:33.548Z,546.00
2023-04-23T05:59:33.542Z,546.00
2023-04-23T06:00:33.533Z,546.00
2023-04-23T06:01:33.520Z,550.00
2023-04-23T06:02:33.604Z,551.00
2023-04-23T06:03:33.713Z,553.00
2023-04-23T06:04:33.842Z,554.00
2023-04-23T06:05:33.570Z,555.00
2023-04-23T06:06:33.488Z,555.00
2023-04-23T06:07:33.481Z,556.00
2023-04-23T06:08:33.478Z,557.00
2023-04-23T06:09:33.466Z,556.00
2023-04-23T06:10:33.467Z,557.00
2023-04-23T06:11:33.451Z,554.00
2023-04-23T06:12:33.452Z,553.00
2023-04-23T06:13:33.441Z,553.00
2023-04-23T06:14:33.436Z,553.00
2023-04-23T06:15:33.432Z,552.00
2023-04-23T06:16:33.424Z,552.00
2023-04-23T06:17:33.448Z,551.00
2023-04-23T06:18:33.405Z,551.00
2023-04-23T06:19:33.400Z,550.00
2023-04-23T06:20:33.397Z,550.00
2023-04-23T06:21:33.413Z,551.00
2023-04-23T06:22:33.385Z,552.00
2023-04-23T06:23:33.371Z,551.00
2023-04-23T06:24:33.372Z,553.00
2023-04-23T06:25:33.355Z,554.00
2023-04-23T06:26:33.376Z,552.00
2023-04-23T06:27:33.339Z,551.00
2023-04-23T06:28:33.340Z,551.00
2023-04-23T06:29:33.333Z,552.00
2023-04-23T06:30:33.316Z,552.00
2023-04-23T06:31:33.367Z,553.00
2023-04-23T06:32:33.349Z,554.00
2023-04-23T06:33:33.302Z,554.00
2023-04-23T06:34:33.300Z,553.00
2023-04-23T06:35:33.283Z,550.00
2023-04-23T06:36:33.284Z,549.00
2023-04-23T06:37:33.293Z,549.00
2023-04-23T06:38:33.267Z,549.00
2023-04-23T06:39:33.252Z,548.00
2023-04-23T06:40:33.250Z,546.00
2023-04-23T06:41:33.245Z,546.00
2023-04-23T06:42:33.254Z,548.00
2023-04-23T06:43:33.229Z,548.00
2023-04-23T06:44:33.212Z,545.00
2023-04-23T06:45:33.255Z,545.00
2023-04-23T06:46:33.229Z,547.00
2023-04-23T06:47:33.214Z,547.00
2023-04-23T06:48:33.218Z,548.00
2023-04-23T06:49:33.239Z,546.00
2023-04-23T06:50:33.275Z,543.00
2023-04-23T06:51:33.315Z,542.00
2023-04-23T06:52:33.340Z,541.00
2023-04-23T06:53:33.390Z,542.00
2023-04-23T06:54:33.416Z,544.00
2023-04-23T06:55:33.432Z,543.00
2023-04-23T06:56:33.457Z,543.00
2023-04-23T06:57:33.482Z,545.00
2023-04-23T06:58:33.517Z,546.00
2023-04-23T06:59:33.580Z,545.00
2023-04-23T07:00:33.595Z,545.00
2023-04-23T07:01:33.628Z,545.00
2023-04-23T07:02:33.777Z,545.00
2023-04-23T07:03:33.759Z,546.00
2023-04-23T07:04:33.884Z,547.00
2023-04-23T07:05:33.782Z,548.00
2023-04-23T07:06:33.828Z,545.00
2023-04-23T07:07:33.885Z,544.00
2023-04-23T07:08:33.931Z,542.00
2023-04-23T07:09:34.026Z,541.00
2023-04-23T07:10:34.033Z,540.00
2023-04-23T07:11:34.098Z,541.00
2023-04-23T07:12:34.171Z,540.00
2023-04-23T07:13:34.210Z,541.00
2023-04-23T07:14:34.252Z,544.00
2023-04-23T07:15:34.330Z,547.00
2023-04-23T07:16:34.396Z,548.00
2023-04-23T07:17:34.447Z,546.00
2023-04-23T07:18:34.469Z,546.00
2023-04-23T07:19:34.538Z,548.00
2023-04-23T07:20:34.586Z,545.00
2023-04-23T07:21:34.656Z,543.00
2023-04-23T07:22:34.716Z,542.00
2023-04-23T07:23:34.780Z,543.00
2023-04-23T07:24:34.850Z,546.00
2023-04-23T07:25:34.935Z,547.00
2023-04-23T07:26:35.018Z,546.00
2023-04-23T07:27:35.042Z,543.00
2023-04-23T07:28:35.105Z,543.00
2023-04-23T07:29:35.164Z,542.00
2023-04-23T07:30:35.233Z,542.00
2023-04-23T07:31:35.327Z,543.00
2023-04-23T07:32:35.396Z,542.00
2023-04-23T07:33:35.436Z,543.00
2023-04-23T07:34:36.279Z,544.00
2023-04-23T07:35:35.495Z,543.00
2023-04-23T07:36:35.473Z,542.00
2023-04-23T07:37:35.571Z,543.00
2023-04-23T07:38:35.465Z,542.00
2023-04-23T07:39:35.451Z,542.00
2023-04-23T07:40:35.440Z,542.00
2023-04-23T07:41:35.567Z,542.00
2023-04-23T07:42:35.432Z,541.00
2023-04-23T07:43:35.421Z,539.00
2023-04-23T07:44:35.406Z,537.00
2023-04-23T07:45:35.402Z,537.00
2023-04-23T07:46:35.401Z,540.00
2023-04-23T07:47:35.415Z,541.00
2023-04-23T07:48:35.419Z,541.00
2023-04-23T07:49:35.396Z,543.00
2023-04-23T07:50:35.376Z,542.00
2023-04-23T07:51:35.361Z,543.00
2023-04-23T07:52:35.381Z,542.00
2023-04-23T07:53:35.400Z,542.00
2023-04-23T07:54:35.346Z,541.00
2023-04-23T07:55:35.335Z,541.00
2023-04-23T07:56:35.332Z,540.00
2023-04-23T07:57:35.387Z,543.00
2023-04-23T07:58:35.444Z,543.00
2023-04-23T07:59:35.480Z,539.00
2023-04-23T08:00:35.544Z,540.00
2023-04-23T08:01:35.615Z,542.00
2023-04-23T08:02:35.808Z,540.00
2023-04-23T08:03:35.953Z,540.00
2023-04-23T08:04:35.920Z,540.00
2023-04-23T08:05:35.932Z,542.00
2023-04-23T08:06:35.937Z,543.00
2023-04-23T08:07:36.007Z,540.00
2023-04-23T08:08:36.080Z,540.00
2023-04-23T08:09:36.136Z,540.00
2023-04-23T08:10:36.201Z,541.00
2023-04-23T08:11:36.262Z,542.00
2023-04-23T08:12:36.310Z,543.00
2023-04-23T08:13:36.405Z,541.00
2023-04-23T08:14:36.446Z,542.00
2023-04-23T08:15:36.558Z,541.00
2023-04-23T08:16:38.787Z,540.00
2023-04-23T08:17:36.595Z,540.00
2023-04-23T08:18:36.554Z,542.00
2023-04-23T08:19:36.552Z,543.00
2023-04-23T08:20:36.567Z,542.00
2023-04-23T08:21:36.538Z,541.00
2023-04-23T08:22:36.539Z,540.00
2023-04-23T08:23:36.535Z,538.00
2023-04-23T08:24:36.548Z,537.00
2023-04-23T08:25:36.511Z,537.00
2023-04-23T08:26:36.507Z,536.00
2023-04-23T08:27:36.492Z,537.00
2023-04-23T08:28:36.496Z,540.00
2023-04-23T08:29:36.587Z,542.00
2023-04-23T08:30:36.487Z,543.00
2023-04-23T08:31:36.482Z,543.00
2023-04-23T08:32:36.528Z,544.00
2023-04-23T08:33:36.472Z,543.00
2023-04-23T08:34:36.447Z,542.00
2023-04-23T08:35:36.438Z,541.00
2023-04-23T08:36:36.430Z,543.00
2023-04-23T08:37:36.439Z,543.00
2023-04-23T08:38:36.423Z,542.00
2023-04-23T08:39:37.148Z,542.00
2023-04-23T08:40:36.419Z,538.00
2023-04-23T08:41:36.402Z,538.00
2023-04-23T08:42:36.389Z,539.00
2023-04-23T08:43:36.387Z,542.00
2023-04-23T08:44:36.383Z,540.00
2023-04-23T08:45:37.252Z,540.00
2023-04-23T08:46:36.398Z,542.00
2023-04-23T08:47:36.397Z,543.00
2023-04-23T08:48:36.356Z,543.00
2023-04-23T08:49:36.342Z,543.00
2023-04-23T08:50:36.339Z,544.00
2023-04-23T08:51:36.329Z,545.00
2023-04-23T08:52:36.327Z,543.00
2023-04-23T08:53:37.888Z,543.00
2023-04-23T08:54:36.308Z,542.00
2023-04-23T08:55:36.302Z,540.00
2023-04-23T08:56:36.291Z,538.00
2023-04-23T08:57:36.289Z,536.00
2023-04-23T08:58:36.278Z,535.00
2023-04-23T08:59:36.276Z,536.00
2023-04-23T09:00:36.276Z,538.00
2023-04-23T09:01:36.412Z,540.00
2023-04-23T09:02:36.378Z,542.00
2023-04-23T09:03:36.384Z,544.00
2023-04-23T09:04:36.237Z,545.00
2023-04-23T09:05:36.229Z,545.00
2023-04-23T09:06:36.224Z,542.00
2023-04-23T09:07:36.212Z,542.00
2023-04-23T09:08:36.205Z,540.00
2023-04-23T09:09:36.195Z,539.00
2023-04-23T09:10:36.185Z,540.00
2023-04-23T09:11:36.185Z,540.00
2023-04-23T09:12:36.181Z,536.00
2023-04-23T09:13:36.176Z,538.00
2023-04-23T09:14:36.171Z,538.00
2023-04-23T09:15:36.158Z,537.00
2023-04-23T09:16:36.227Z,534.00
2023-04-23T09:17:37.366Z,534.00
2023-04-23T09:18:36.136Z,533.00
2023-04-23T09:19:36.134Z,532.00
2023-04-23T09:20:36.133Z,534.00
2023-04-23T09:21:36.112Z,534.00
2023-04-23T09:22:36.113Z,535.00
2023-04-23T09:23:36.096Z,536.00
2023-04-23T09:24:36.092Z,536.00
2023-04-23T09:25:36.095Z,538.00
2023-04-23T09:26:36.091Z,538.00
2023-04-23T09:27:36.073Z,538.00
2023-04-23T09:28:36.063Z,541.00
2023-04-23T09:29:36.053Z,541.00
2023-04-23T09:30:36.050Z,541.00
2023-04-23T09:31:36.051Z,539.00
2023-04-23T09:32:36.064Z,539.00
2023-04-23T09:33:36.065Z,538.00
2023-04-23T09:34:36.022Z,538.00
2023-04-23T09:35:36.032Z,539.00
2023-04-23T09:36:36.001Z,539.00
2023-04-23T09:37:36.012Z,539.00
2023-04-23T09:38:36.003Z,538.00
2023-04-23T09:39:36.002Z,539.00
2023-04-23T09:40:35.985Z,538.00
2023-04-23T09:41:35.980Z,541.00
2023-04-23T09:42:35.968Z,542.00
2023-04-23T09:43:35.966Z,541.00
2023-04-23T09:44:36.018Z,538.00
2023-04-23T09:45:36.079Z,537.00
2023-04-23T09:46:36.118Z,538.00
2023-04-23T09:47:36.258Z,538.00
2023-04-23T09:48:36.241Z,538.00
2023-04-23T09:49:36.304Z,541.00
2023-04-23T09:50:36.328Z,543.00
2023-04-23T09:51:36.381Z,543.00
2023-04-23T09:52:36.439Z,545.00
2023-04-23T09:53:37.368Z,544.00
2023-04-23T09:54:36.669Z,544.00
2023-04-23T09:55:35.995Z,543.00
2023-04-23T09:56:36.762Z,542.00
2023-04-23T09:57:36.815Z,542.00
2023-04-23T09:58:36.961Z,543.00
2023-04-23T09:59:48.525Z,543.00
2023-04-23T10:00:36.910Z,542.00
2023-04-23T10:01:36.977Z,544.00
2023-04-23T10:02:37.103Z,545.00
2023-04-23T10:03:39.236Z,544.00
2023-04-23T10:04:37.215Z,544.00
2023-04-23T10:05:49.770Z,545.00
2023-04-23T10:06:44.399Z,540.00
2023-04-23T10:07:36.906Z,539.00
2023-04-23T10:08:36.891Z,537.00
2023-04-23T10:09:36.890Z,538.00
2023-04-23T10:10:47.087Z,539.00
2023-04-23T10:11:37.826Z,540.00
2023-04-23T10:12:52.149Z,541.00
2023-04-23T10:13:36.872Z,539.00
2023-04-23T10:14:36.848Z,539.00
2023-04-23T10:15:36.848Z,539.00
2023-04-23T10:16:46.395Z,538.00
2023-04-23T10:17:36.885Z,538.00
2023-04-23T10:18:36.821Z,538.00
2023-04-23T10:19:37.023Z,540.00
2023-04-23T10:20:36.800Z,543.00
2023-04-23T10:21:46.651Z,545.00
2023-04-23T10:22:36.809Z,546.00
2023-04-23T10:23:36.784Z,545.00
2023-04-23T10:24:36.770Z,543.00
2023-04-23T10:25:36.770Z,545.00
2023-04-23T10:26:36.761Z,545.00
2023-04-23T10:27:51.337Z,546.00
2023-04-23T10:28:36.753Z,545.00
2023-04-23T10:29:36.740Z,545.00
2023-04-23T10:30:36.731Z,544.00
2023-04-23T10:31:36.758Z,545.00
2023-04-23T10:32:36.741Z,544.00
2023-04-23T10:33:45.725Z,543.00
2023-04-23T10:34:36.804Z,541.00
2023-04-23T10:35:36.701Z,539.00
2023-04-23T10:36:36.695Z,538.00
2023-04-23T10:37:36.711Z,539.00
2023-04-23T10:38:39.301Z,541.00
2023-04-23T10:39:36.679Z,543.00
2023-04-23T10:40:36.662Z,543.00
2023-04-23T10:41:36.654Z,544.00
2023-04-23T10:42:36.649Z,545.00
2023-04-23T10:43:36.659Z,543.00
2023-04-23T10:44:56.784Z,543.00
2023-04-23T10:45:36.645Z,544.00
2023-04-23T10:46:39.242Z,545.00
2023-04-23T10:47:36.641Z,546.00
2023-04-23T10:48:36.615Z,547.00
2023-04-23T10:49:36.598Z,547.00
2023-04-23T10:50:37.807Z,547.00
2023-04-23T10:52:36.588Z,544.00
2023-04-23T10:53:36.613Z,545.00
2023-04-23T10:54:36.592Z,546.00
2023-04-23T10:55:36.573Z,548.00
2023-04-23T10:56:36.552Z,551.00
2023-04-23T10:57:36.544Z,553.00
2023-04-23T10:58:36.539Z,551.00
2023-04-23T10:59:36.540Z,551.00
2023-04-23T11:00:36.531Z,550.00
2023-04-23T11:01:36.572Z,550.00
2023-04-23T11:02:36.620Z,549.00
2023-04-23T11:03:39.780Z,549.00
2023-04-23T11:04:36.589Z,549.00
2023-04-23T11:05:36.496Z,550.00
2023-04-23T11:06:36.488Z,551.00
2023-04-23T11:07:36.480Z,552.00
2023-04-23T11:08:36.482Z,552.00
2023-04-23T11:09:36.505Z,550.00
2023-04-23T11:10:36.463Z,548.00
2023-04-23T11:11:36.452Z,548.00
2023-04-23T11:12:36.450Z,547.00
2023-04-23T11:13:36.440Z,544.00
2023-04-23T11:14:36.435Z,542.00
2023-04-23T11:15:36.425Z,543.00
2023-04-23T11:16:37.390Z,546.00
2023-04-23T11:17:36.432Z,545.00
2023-04-23T11:18:36.394Z,544.00
2023-04-23T11:19:36.391Z,544.00
2023-04-23T11:20:36.392Z,543.00
2023-04-23T11:21:36.382Z,542.00
2023-04-23T11:22:36.369Z,541.00
2023-04-23T11:23:36.362Z,538.00
2023-04-23T11:24:36.351Z,540.00
2023-04-23T11:25:36.367Z,540.00
2023-04-23T11:26:36.337Z,539.00
2023-04-23T11:27:36.330Z,538.00
2023-04-23T11:28:36.324Z,538.00
2023-04-23T11:29:36.345Z,538.00
2023-04-23T11:30:36.335Z,536.00
2023-04-23T11:31:36.414Z,537.00
2023-04-23T11:32:36.493Z,538.00
2023-04-23T11:33:36.429Z,536.00
2023-04-23T11:34:36.464Z,537.00
2023-04-23T11:35:36.495Z,538.00
2023-04-23T11:36:36.527Z,538.00
2023-04-23T11:37:36.553Z,541.00
2023-04-23T11:38:36.583Z,541.00
2023-04-23T11:39:36.610Z,540.00
2023-04-23T11:40:36.675Z,538.00
2023-04-23T11:41:36.699Z,537.00
2023-04-23T11:42:36.706Z,539.00
2023-04-23T11:43:36.744Z,538.00
2023-04-23T11:44:36.783Z,538.00
2023-04-23T11:45:36.838Z,539.00
2023-04-23T11:46:36.837Z,539.00
2023-04-23T11:47:36.933Z,537.00
2023-04-23T11:48:36.900Z,536.00
2023-04-23T11:49:36.928Z,540.00
2023-04-23T11:50:36.965Z,540.00
2023-04-23T11:51:36.983Z,540.00
2023-04-23T11:52:39.621Z,540.00
2023-04-23T11:53:37.005Z,540.00
2023-04-23T11:54:36.997Z,540.00
2023-04-23T11:55:36.998Z,537.00
2023-04-23T11:56:36.989Z,535.00
2023-04-23T11:57:37.003Z,533.00
2023-04-23T11:58:39.232Z,534.00
2023-04-23T11:59:36.963Z,536.00
2023-04-23T12:00:36.961Z,533.00
2023-04-23T12:01:36.948Z,533.00
2023-04-23T12:02:37.000Z,534.00
2023-04-23T12:03:37.085Z,534.00
2023-04-23T12:04:39.611Z,535.00
2023-04-23T12:05:37.081Z,533.00
2023-04-23T12:06:36.917Z,532.00
2023-04-23T12:07:36.911Z,531.00
2023-04-23T12:08:36.903Z,532.00
2023-04-23T12:09:36.897Z,534.00
2023-04-23T12:10:36.890Z,535.00
2023-04-23T12:11:36.877Z,534.00
2023-04-23T12:12:36.869Z,533.00
2023-04-23T12:13:36.894Z,536.00
2023-04-23T12:14:36.862Z,537.00
2023-04-23T12:15:36.874Z,536.00
2023-04-23T12:16:36.847Z,537.00
2023-04-23T12:17:36.862Z,540.00
2023-04-23T12:18:36.869Z,538.00
2023-04-23T12:19:36.899Z,536.00
2023-04-23T12:20:36.926Z,534.00
2023-04-23T12:21:36.952Z,534.00
2023-04-23T12:22:36.966Z,533.00
2023-04-23T12:23:37.010Z,536.00
2023-04-23T12:24:37.027Z,537.00
2023-04-23T12:25:37.039Z,539.00
2023-04-23T12:26:39.723Z,539.00
2023-04-23T12:27:37.059Z,539.00
2023-04-23T12:28:37.052Z,539.00
2023-04-23T12:29:37.074Z,541.00